Time;durP1;ratioP1;P1;durP2;ratioP2;P2;SDS_P1;SDS_P2;PMS_P1;PMS_P2;Temp;Humidity;BMP_temperature;BMP_pressure;BME280_temperature;BME280_humidity;BME280_pressure;Samples;Min_cycle;Max_cycle;Signal;HPM_P1;HPM_P2
2023/12/05 00:00:09;;;;;;;;;;;;;;;;;;5084581;28;1172;-55
2023/12/05 00:02:34;;;;;;;;;;;;;;;;;;5084124;28;1141;-60
2023/12/05 00:05:00;;;;;;;;;;;;;;;;;;5084402;28;1317;-58
2023/12/05 00:07:25;;;;;;;;;;;;;;;;;;5084273;28;1244;-58
2023/12/05 00:09:50;;;;;;;;;;;;;;;;;;5084341;28;1205;-59
2023/12/05 00:12:15;;;;;;;;;;;;;;;;;;5083972;28;1076;-59
2023/12/05 00:14:41;;;;;;;;;;;;;;;;;;5083920;28;1190;-57
2023/12/05 00:17:06;;;;;;;;;;;;;;;;;;5083850;28;1947;-57
2023/12/05 00:19:32;;;;;;;;;;;;;;;;;;5083752;28;1246;-56
2023/12/05 00:21:57;;;;;;;;;;;;;;;;;;5084296;28;1175;-61
2023/12/05 00:24:22;;;;;;;;;;;;;;;;;;5083880;28;1170;-58
2023/12/05 00:26:47;;;;;;;;;;;;;;;;;;5084165;28;1300;-60
2023/12/05 00:29:13;;;;;;;;;;;;;;;;;;5084054;28;1183;-58
2023/12/05 00:31:38;;;;;;;;;;;;;;;;;;5084285;28;1382;-57
2023/12/05 00:34:03;;;;;;;;;;;;;;;;;;5083605;28;1202;-58
2023/12/05 00:36:28;;;;;;;;;;;;;;;;;;5083341;28;1882;-58
2023/12/05 00:38:53;;;;;;;;;;;;;;;;;;5083247;28;1167;-60
2023/12/05 00:41:19;;;;;;;;;;;;;;;;;;5083730;28;1133;-60
2023/12/05 00:43:44;;;;;;;;;;;;;;;;;;5086250;28;1208;-57
2023/12/05 00:46:10;;;;;;;;;;;;;;;;;;5087189;28;1170;-60
2023/12/05 00:48:35;;;;;;;;;;;;;;;;;;5087208;28;1282;-58
2023/12/05 00:51:00;;;;;;;;;;;;;;;;;;5087405;28;1076;-59
2023/12/05 00:53:26;;;;;;;;;;;;;;;;;;5086733;28;1032;-57
2023/12/05 00:55:51;;;;;;;;;;;;;;;;;;5083704;28;1898;-58
2023/12/05 00:58:16;;;;;;;;;;;;;;;;;;5083416;28;1076;-59
2023/12/05 01:00:41;;;;;;;;;;;;;;;;;;5083828;28;1186;-58
2023/12/05 01:03:07;;;;;;;;;;;;;;;;;;5083874;28;1162;-57
2023/12/05 01:05:33;;;;;;;;;;;;;;;;;;5083609;28;1068;-59
2023/12/05 01:07:58;;;;;;;;;;;;;;;;;;5083747;28;1080;-60
2023/12/05 01:10:23;;;;;;;;;;;;;;;;;;5083820;28;1290;-58
2023/12/05 01:12:48;;;;;;;;;;;;;;;;;;5082962;28;1203;-56
2023/12/05 01:15:13;;;;;;;;;;;;;;;;;;5083018;28;1166;-58
2023/12/05 01:17:38;;;;;;;;;;;;;;;;;;5083188;28;1944;-58
2023/12/05 01:20:07;;;;;;;;;;;;;;;;;;5083118;28;1197;-57
2023/12/05 01:22:32;;;;;;;;;;;;;;;;;;5082927;28;1309;-58
2023/12/05 01:24:57;;;;;;;;;;;;;;;;;;5083045;28;1291;-59
2023/12/05 01:27:23;;;;;;;;;;;;;;;;;;5083023;28;989;-56
2023/12/05 01:29:48;;;;;;;;;;;;;;;;;;5083179;28;1143;-56
2023/12/05 01:32:13;;;;;;;;;;;;;;;;;;5082969;28;1131;-60
2023/12/05 01:34:38;;;;;;;;;;;;;;;;;;5082818;28;1088;-58
2023/12/05 01:37:04;;;;;;;;;;;;;;;;;;5082388;28;1878;-58
2023/12/05 01:39:29;;;;;;;;;;;;;;;;;;5083202;28;1182;-57
2023/12/05 01:41:54;;;;;;;;;;;;;;;;;;5082525;28;1187;-58
2023/12/05 01:44:20;;;;;;;;;;;;;;;;;;5083073;28;1159;-59
2023/12/05 01:46:45;;;;;;;;;;;;;;;;;;5082709;28;1166;-57
2023/12/05 01:49:10;;;;;;;;;;;;;;;;;;5082571;28;1293;-57
2023/12/05 01:51:36;;;;;;;;;;;;;;;;;;5082447;28;1187;-58
2023/12/05 01:54:01;;;;;;;;;;;;;;;;;;5082481;28;1186;-58
2023/12/05 01:56:26;;;;;;;;;;;;;;;;;;5082149;28;1882;-60
2023/12/05 01:58:51;;;;;;;;;;;;;;;;;;5082615;28;1267;-58
2023/12/05 02:01:17;;;;;;;;;;;;;;;;;;5082459;28;1202;-58
2023/12/05 02:03:42;;;;;;;;;;;;;;;;;;5081187;28;1107;-57
2023/12/05 02:06:07;;;;;;;;;;;;;;;;;;5082005;28;1372;-59
2023/12/05 02:08:32;;;;;;;;;;;;;;;;;;5082679;28;1063;-58
2023/12/05 02:10:57;;;;;;;;;;;;;;;;;;5081640;28;1305;-58
2023/12/05 02:13:23;;;;;;;;;;;;;;;;;;5080987;28;1206;-60
2023/12/05 02:15:48;;;;;;;;;;;;;;;;;;5081387;28;1939;-60
2023/12/05 02:18:13;;;;;;;;;;;;;;;;;;5081041;28;1304;-57
2023/12/05 02:20:39;;;;;;;;;;;;;;;;;;5081298;28;1203;-60
2023/12/05 02:23:05;;;;;;;;;;;;;;;;;;5081051;28;1088;-56
2023/12/05 02:25:31;;;;;;;;;;;;;;;;;;5081075;28;1258;-58
2023/12/05 02:27:56;;;;;;;;;;;;;;;;;;5082037;28;1078;-59
2023/12/05 02:30:22;;;;;;;;;;;;;;;;;;5082200;28;1309;-59
2023/12/05 02:32:47;;;;;;;;;;;;;;;;;;5082295;28;1228;-58
2023/12/05 02:35:12;;;;;;;;;;;;;;;;;;5082093;28;1187;-58
2023/12/05 02:37:38;;;;;;;;;;;;;;;;;;5081904;28;1945;-59
2023/12/05 02:40:04;;;;;;;;;;;;;;;;;;5081510;28;1377;-59
2023/12/05 02:42:29;;;;;;;;;;;;;;;;;;5081801;28;1371;-58
2023/12/05 02:44:55;;;;;;;;;;;;;;;;;;5081973;28;1235;-61
2023/12/05 02:47:20;;;;;;;;;;;;;;;;;;5082159;28;1141;-59
2023/12/05 02:49:45;;;;;;;;;;;;;;;;;;5081583;28;1242;-59
2023/12/05 02:52:11;;;;;;;;;;;;;;;;;;5081958;28;1373;-57
2023/12/05 02:54:36;;;;;;;;;;;;;;;;;;5081681;28;1217;-59
2023/12/05 02:57:02;;;;;;;;;;;;;;;;;;5081392;28;1965;-58
2023/12/05 02:59:27;;;;;;;;;;;;;;;;;;5081533;28;1322;-59
2023/12/05 03:01:52;;;;;;;;;;;;;;;;;;5081516;28;1242;-60
2023/12/05 03:04:17;;;;;;;;;;;;;;;;;;5081568;28;1250;-59
2023/12/05 03:06:43;;;;;;;;;;;;;;;;;;5080686;28;1199;-57
2023/12/05 03:09:08;;;;;;;;;;;;;;;;;;5081434;28;1492;-59
2023/12/05 03:11:33;;;;;;;;;;;;;;;;;;5081560;28;1206;-58
2023/12/05 03:13:58;;;;;;;;;;;;;;;;;;5081259;28;1183;-60
2023/12/05 03:16:24;;;;;;;;;;;;;;;;;;5081883;28;1954;-59
2023/12/05 03:18:49;;;;;;;;;;;;;;;;;;5081295;28;1302;-61
2023/12/05 03:21:14;;;;;;;;;;;;;;;;;;5081345;28;1294;-58
2023/12/05 03:23:39;;;;;;;;;;;;;;;;;;5081352;28;1276;-59
2023/12/05 03:26:04;;;;;;;;;;;;;;;;;;5081000;28;1324;-58
2023/12/05 03:28:30;;;;;;;;;;;;;;;;;;5081063;28;1261;-59
2023/12/05 03:30:55;;;;;;;;;;;;;;;;;;5081223;28;1168;-60
2023/12/05 03:33:20;;;;;;;;;;;;;;;;;;5081012;28;1246;-60
2023/12/05 03:35:45;;;;;;;;;;;;;;;;;;5081074;28;1936;-59
2023/12/05 03:38:11;;;;;;;;;;;;;;;;;;5080872;28;1272;-61
2023/12/05 03:40:36;;;;;;;;;;;;;;;;;;5080850;28;1371;-59
2023/12/05 03:43:01;;;;;;;;;;;;;;;;;;5080786;28;1255;-58
2023/12/05 03:45:26;;;;;;;;;;;;;;;;;;5080946;28;1294;-60
2023/12/05 03:47:51;;;;;;;;;;;;;;;;;;5080977;28;1108;-60
2023/12/05 03:50:17;;;;;;;;;;;;;;;;;;5080838;28;1124;-61
2023/12/05 03:52:42;;;;;;;;;;;;;;;;;;5081027;28;1327;-58
2023/12/05 03:55:07;;;;;;;;;;;;;;;;;;5080875;28;1189;-56
2023/12/05 03:57:32;;;;;;;;;;;;;;;;;;5080522;28;1957;-59
2023/12/05 03:59:58;;;;;;;;;;;;;;;;;;5080809;28;1355;-60
2023/12/05 04:02:23;;;;;;;;;;;;;;;;;;5080776;28;1199;-60
2023/12/05 04:04:48;;;;;;;;;;;;;;;;;;5080617;28;1262;-56
2023/12/05 04:07:13;;;;;;;;;;;;;;;;;;5080869;28;1155;-59
2023/12/05 04:09:39;;;;;;;;;;;;;;;;;;5080369;28;1350;-60
2023/12/05 04:12:04;;;;;;;;;;;;;;;;;;5080711;28;1250;-59
2023/12/05 04:14:29;;;;;;;;;;;;;;;;;;5080476;28;1270;-61
2023/12/05 04:16:54;;;;;;;;;;;;;;;;;;5080350;28;1949;-59
2023/12/05 04:19:19;;;;;;;;;;;;;;;;;;5083350;28;1222;-61
2023/12/05 04:21:44;;;;;;;;;;;;;;;;;;5084651;28;1403;-58
2023/12/05 04:24:10;;;;;;;;;;;;;;;;;;5084602;28;1366;-60
2023/12/05 04:26:35;;;;;;;;;;;;;;;;;;5078097;28;1229;-60
2023/12/05 04:29:00;;;;;;;;;;;;;;;;;;5072284;28;1238;-61
2023/12/05 04:31:34;;;;;;;;;;;;;;;;;;5074169;28;1308;-57
2023/12/05 04:33:59;;;;;;;;;;;;;;;;;;5071761;28;1293;-56
2023/12/05 04:36:24;;;;;;;;;;;;;;;;;;5074481;28;1942;-60
2023/12/05 04:38:49;;;;;;;;;;;;;;;;;;5074220;28;1263;-58
2023/12/05 04:41:14;;;;;;;;;;;;;;;;;;5073852;28;1400;-59
2023/12/05 04:43:40;;;;;;;;;;;;;;;;;;5072204;28;1325;-59
2023/12/05 04:46:05;;;;;;;;;;;;;;;;;;5074040;28;1210;-60
2023/12/05 04:48:30;;;;;;;;;;;;;;;;;;5070304;28;1313;-61
2023/12/05 04:50:55;;;;;;;;;;;;;;;;;;5075064;28;1245;-60
2023/12/05 04:53:20;;;;;;;;;;;;;;;;;;5072224;28;1210;-60
2023/12/05 04:55:46;;;;;;;;;;;;;;;;;;5076589;28;1943;-61
2023/12/05 04:58:11;;;;;;;;;;;;;;;;;;5076000;28;1829;-61
2023/12/05 05:00:36;;;;;;;;;;;;;;;;;;5075747;28;1210;-60
2023/12/05 05:03:01;;;;;;;;;;;;;;;;;;5077462;28;1257;-59
2023/12/05 05:05:26;;;;;;;;;;;;;;;;;;5074886;28;1222;-60
2023/12/05 05:07:52;;;;;;;;;;;;;;;;;;5076387;28;1246;-61
2023/12/05 05:10:17;;;;;;;;;;;;;;;;;;5075488;28;1320;-60
2023/12/05 05:12:42;;;;;;;;;;;;;;;;;;5074503;28;1254;-58
2023/12/05 05:15:08;;;;;;;;;;;;;;;;;;5071836;28;1202;-59
2023/12/05 05:17:33;;;;;;;;;;;;;;;;;;5076903;28;1927;-59
2023/12/05 05:19:59;;;;;;;;;;;;;;;;;;5077316;28;1309;-58
2023/12/05 05:22:24;;;;;;;;;;;;;;;;;;5076890;28;1294;-58
2023/12/05 05:24:49;;;;;;;;;;;;;;;;;;5074062;28;1289;-60
2023/12/05 05:27:14;;;;;;;;;;;;;;;;;;5076218;28;1373;-60
2023/12/05 05:29:39;;;;;;;;;;;;;;;;;;5074425;28;1326;-56
2023/12/05 05:32:04;;;;;;;;;;;;;;;;;;5076922;28;1393;-61
2023/12/05 05:34:29;;;;;;;;;;;;;;;;;;5075288;28;1662;-61
2023/12/05 05:36:55;;;;;;;;;;;;;;;;;;5075190;28;1935;-61
2023/12/05 05:39:20;;;;;;;;;;;;;;;;;;5076829;28;1231;-61
2023/12/05 05:41:45;;;;;;;;;;;;;;;;;;5076518;28;1293;-61
2023/12/05 05:44:11;;;;;;;;;;;;;;;;;;5075500;28;1254;-60
2023/12/05 05:46:36;;;;;;;;;;;;;;;;;;5074656;28;1272;-61
2023/12/05 05:49:01;;;;;;;;;;;;;;;;;;5076439;28;1216;-59
2023/12/05 05:51:26;;;;;;;;;;;;;;;;;;5073504;28;1187;-58
2023/12/05 05:53:53;;;;;;;;;;;;;;;;;;5075593;28;1285;-60
2023/12/05 05:56:18;;;;;;;;;;;;;;;;;;5076520;28;1906;-59
2023/12/05 05:58:43;;;;;;;;;;;;;;;;;;5075670;28;1318;-58
2023/12/05 06:01:08;;;;;;;;;;;;;;;;;;5069307;28;1238;-59
2023/12/05 06:03:34;;;;;;;;;;;;;;;;;;5076106;28;1214;-58
2023/12/05 06:06:00;;;;;;;;;;;;;;;;;;5076781;28;1354;-58
2023/12/05 06:08:25;;;;;;;;;;;;;;;;;;5074732;28;1420;-59
2023/12/05 06:10:50;;;;;;;;;;;;;;;;;;5073289;28;1215;-59
2023/12/05 06:13:16;;;;;;;;;;;;;;;;;;5065033;28;1191;-62
2023/12/05 06:15:41;;;;;;;;;;;;;;;;;;5065492;28;1353;-58
2023/12/05 06:18:07;;;;;;;;;;;;;;;;;;5065305;28;1890;-58
2023/12/05 06:20:32;;;;;;;;;;;;;;;;;;5065468;28;1207;-61
2023/12/05 06:22:58;;;;;;;;;;;;;;;;;;5065482;28;1191;-60
2023/12/05 06:25:23;;;;;;;;;;;;;;;;;;5067496;28;1242;-60
2023/12/05 06:27:48;;;;;;;;;;;;;;;;;;5083667;28;1159;-58
2023/12/05 06:30:13;;;;;;;;;;;;;;;;;;5073449;28;1302;-55
2023/12/05 06:32:39;;;;;;;;;;;;;;;;;;5069677;28;1176;-58
2023/12/05 06:35:04;;;;;;;;;;;;;;;;;;5074964;28;1285;-60
2023/12/05 06:37:29;;;;;;;;;;;;;;;;;;5073745;28;1933;-61
2023/12/05 06:39:54;;;;;;;;;;;;;;;;;;5076484;28;1262;-58
2023/12/05 06:42:20;;;;;;;;;;;;;;;;;;5074386;28;1329;-57
2023/12/05 06:44:45;;;;;;;;;;;;;;;;;;5075164;28;1218;-58
2023/12/05 06:47:10;;;;;;;;;;;;;;;;;;5076860;28;1399;-59
2023/12/05 06:49:35;;;;;;;;;;;;;;;;;;5076420;28;1268;-58
2023/12/05 06:52:02;;;;;;;;;;;;;;;;;;5075111;28;1369;-61
2023/12/05 06:54:28;;;;;;;;;;;;;;;;;;5074853;28;1230;-58
2023/12/05 06:56:53;;;;;;;;;;;;;;;;;;5076015;28;1965;-60
2023/12/05 06:59:19;;;;;;;;;;;;;;;;;;5082937;28;1289;-58
2023/12/05 07:01:44;;;;;;;;;;;;;;;;;;5083366;28;1277;-60
2023/12/05 07:04:09;;;;;;;;;;;;;;;;;;5084600;28;1320;-61
2023/12/05 07:06:34;;;;;;;;;;;;;;;;;;5084343;28;1299;-59
2023/12/05 07:09:00;;;;;;;;;;;;;;;;;;5084105;28;1253;-59
2023/12/05 07:11:25;;;;;;;;;;;;;;;;;;5084456;28;1234;-61
2023/12/05 07:13:50;;;;;;;;;;;;;;;;;;5084938;28;1246;-61
2023/12/05 07:16:15;;;;;;;;;;;;;;;;;;5084054;28;1960;-58
2023/12/05 07:18:40;;;;;;;;;;;;;;;;;;5102029;28;884;-60
2023/12/05 07:21:05;;;;;;;;;;;;;;;;;;5084481;28;1273;-59
2023/12/05 07:23:31;;;;;;;;;;;;;;;;;;5084756;28;1250;-61
2023/12/05 07:25:56;;;;;;;;;;;;;;;;;;5084384;28;1210;-60
2023/12/05 07:28:22;;;;;;;;;;;;;;;;;;5084469;28;1183;-60
2023/12/05 07:30:47;;;;;;;;;;;;;;;;;;5084158;28;1353;-61
2023/12/05 07:33:12;;;;;;;;;;;;;;;;;;5084690;28;1120;-58
2023/12/05 07:35:37;;;;;;;;;;;;;;;;;;5084336;28;1313;-59
2023/12/05 07:38:03;;;;;;;;;;;;;;;;;;5084595;28;1931;-59
2023/12/05 07:40:28;;;;;;;;;;;;;;;;;;5074954;28;1376;-60
2023/12/05 07:42:53;;;;;;;;;;;;;;;;;;5064145;28;1347;-60
2023/12/05 07:45:18;;;;;;;;;;;;;;;;;;5064674;28;1266;-61
2023/12/05 07:47:43;;;;;;;;;;;;;;;;;;5064652;28;1377;-59
2023/12/05 07:50:08;;;;;;;;;;;;;;;;;;5064730;28;1250;-61
2023/12/05 07:52:34;;;;;;;;;;;;;;;;;;5064251;28;1187;-60
2023/12/05 07:54:59;;;;;;;;;;;;;;;;;;5064027;28;1076;-55
2023/12/05 07:57:24;;;;;;;;;;;;;;;;;;5077441;28;1894;-56
2023/12/05 07:59:49;;;;;;;;;;;;;;;;;;5063675;28;1274;-55
2023/12/05 08:02:14;;;;;;;;;;;;;;;;;;5079172;28;1240;-55
2023/12/05 08:04:39;;;;;;;;;;;;;;;;;;5084099;28;1314;-57
2023/12/05 08:07:05;;;;;;;;;;;;;;;;;;5065791;28;1219;-57
2023/12/05 08:09:30;;;;;;;;;;;;;;;;;;5064241;28;1235;-58
2023/12/05 08:11:55;;;;;;;;;;;;;;;;;;5079643;28;1270;-56
2023/12/05 08:14:20;;;;;;;;;;;;;;;;;;5083555;28;1266;-56
2023/12/05 08:16:46;;;;;;;;;;;;;;;;;;5083584;28;1877;-55
2023/12/05 08:19:11;;;;;;;;;;;;;;;;;;5084063;28;1541;-57
2023/12/05 08:21:37;;;;;;;;;;;;;;;;;;5083846;28;1218;-57
2023/12/05 08:24:02;;;;;;;;;;;;;;;;;;5083789;28;1216;-57
2023/12/05 08:26:27;;;;;;;;;;;;;;;;;;5084073;28;1198;-56
2023/12/05 08:28:52;;;;;;;;;;;;;;;;;;5083754;28;1369;-54
2023/12/05 08:31:17;;;;;;;;;;;;;;;;;;5083709;28;1199;-55
2023/12/05 08:33:42;;;;;;;;;;;;;;;;;;5083333;28;1449;-56
2023/12/05 08:36:08;;;;;;;;;;;;;;;;;;5083410;28;1874;-57
2023/12/05 08:38:33;;;;;;;;;;;;;;;;;;5083490;28;1117;-58
2023/12/05 08:40:58;;;;;;;;;;;;;;;;;;5083616;28;1213;-55
2023/12/05 08:43:24;;;;;;;;;;;;;;;;;;5083804;28;1190;-54
2023/12/05 08:45:49;;;;;;;;;;;;;;;;;;5083162;28;1147;-55
2023/12/05 08:48:14;;;;;;;;;;;;;;;;;;5083813;28;1139;-58
2023/12/05 08:50:41;;;;;;;;;;;;;;;;;;5083516;28;1361;-58
2023/12/05 08:53:06;;;;;;;;;;;;;;;;;;5083330;28;1673;-62
2023/12/05 08:55:31;;;;;;;;;;;;;;;;;;5083181;28;1187;-59
2023/12/05 08:57:56;;;;;;;;;;;;;;;;;;5083081;28;1886;-61
2023/12/05 09:00:22;;;;;;;;;;;;;;;;;;5083292;28;1321;-60
2023/12/05 09:02:47;;;;;;;;;;;;;;;;;;5083320;28;1194;-57
2023/12/05 09:05:12;;;;;;;;;;;;;;;;;;5085932;28;1343;-61
2023/12/05 09:07:38;;;;;;;;;;;;;;;;;;5086852;28;1269;-60
2023/12/05 09:10:03;;;;;;;;;;;;;;;;;;5087005;28;1262;-60
2023/12/05 09:12:28;;;;;;;;;;;;;;;;;;5087132;28;1204;-57
2023/12/05 09:14:53;;;;;;;;;;;;;;;;;;5086658;28;1317;-59
2023/12/05 09:17:19;;;;;;;;;;;;;;;;;;5086638;28;1886;-60
2023/12/05 09:19:44;;;;;;;;;;;;;;;;;;5086472;28;1377;-60
2023/12/05 09:22:09;;;;;;;;;;;;;;;;;;5086745;28;1219;-60
2023/12/05 09:24:34;;;;;;;;;;;;;;;;;;5086735;28;1239;-60
2023/12/05 09:26:59;;;;;;;;;;;;;;;;;;5086920;28;1218;-61
2023/12/05 09:29:25;;;;;;;;;;;;;;;;;;5086394;28;1202;-61
2023/12/05 09:31:50;;;;;;;;;;;;;;;;;;5086473;28;1167;-63
2023/12/05 09:34:15;;;;;;;;;;;;;;;;;;5086291;28;1455;-60
2023/12/05 09:36:40;;;;;;;;;;;;;;;;;;5086035;28;1939;-62
2023/12/05 09:39:06;;;;;;;;;;;;;;;;;;5086357;28;1159;-62
2023/12/05 09:41:31;;;;;;;;;;;;;;;;;;5086637;28;1171;-62
2023/12/05 09:43:58;;;;;;;;;;;;;;;;;;5086026;28;1338;-62
2023/12/05 09:46:23;;;;;;;;;;;;;;;;;;5085879;28;1214;-61
2023/12/05 09:48:50;;;;;;;;;;;;;;;;;;5086416;28;1155;-59
2023/12/05 09:51:19;;;;;;;;;;;;;;;;;;5086023;28;1236;-62
2023/12/05 09:53:44;;;;;;;;;;;;;;;;;;5085963;28;1179;-62
2023/12/05 09:56:09;;;;;;;;;;;;;;;;;;5085933;28;1898;-61
2023/12/05 09:58:34;;;;;;;;;;;;;;;;;;5085719;28;1190;-61
2023/12/05 10:01:01;;;;;;;;;;;;;;;;;;5085720;28;1147;-61
2023/12/05 10:03:26;;;;;;;;;;;;;;;;;;5086018;28;1362;-63
2023/12/05 10:05:52;;;;;;;;;;;;;;;;;;5085687;28;1064;-61
2023/12/05 10:08:17;;;;;;;;;;;;;;;;;;5085316;28;1389;-62
2023/12/05 10:10:42;;;;;;;;;;;;;;;;;;5085594;28;1396;-62
2023/12/05 10:13:07;;;;;;;;;;;;;;;;;;5085793;28;1092;-62
2023/12/05 10:15:32;;;;;;;;;;;;;;;;;;5085805;28;1249;-61
2023/12/05 10:17:57;;;;;;;;;;;;;;;;;;5085521;28;1886;-60
2023/12/05 10:20:22;;;;;;;;;;;;;;;;;;5085365;28;1206;-62
2023/12/05 10:22:48;;;;;;;;;;;;;;;;;;5085423;28;1325;-62
2023/12/05 10:25:14;;;;;;;;;;;;;;;;;;5085546;28;1218;-62
2023/12/05 10:27:40;;;;;;;;;;;;;;;;;;5085405;28;1335;-62
2023/12/05 10:30:05;;;;;;;;;;;;;;;;;;5085719;28;1218;-61
2023/12/05 10:32:30;;;;;;;;;;;;;;;;;;5085340;28;1230;-63
2023/12/05 10:35:01;;;;;;;;;;;;;;;;;;5085195;28;1194;-62
2023/12/05 10:37:27;;;;;;;;;;;;;;;;;;5084981;28;1943;-62
2023/12/05 10:39:52;;;;;;;;;;;;;;;;;;5085328;28;1206;-61
2023/12/05 10:42:18;;;;;;;;;;;;;;;;;;5084980;28;1295;-62
2023/12/05 10:44:44;;;;;;;;;;;;;;;;;;5085433;28;1140;-63
2023/12/05 10:47:09;;;;;;;;;;;;;;;;;;5085235;28;1175;-61
2023/12/05 10:49:35;;;;;;;;;;;;;;;;;;5085320;28;1164;-63
2023/12/05 10:52:00;;;;;;;;;;;;;;;;;;5085037;28;1254;-62
2023/12/05 10:54:25;;;;;;;;;;;;;;;;;;5085070;28;1197;-62
2023/12/05 10:56:50;;;;;;;;;;;;;;;;;;5081023;28;1890;-62
2023/12/05 10:59:15;;;;;;;;;;;;;;;;;;5081889;28;1202;-60
2023/12/05 11:01:40;;;;;;;;;;;;;;;;;;5072897;28;1411;-60
2023/12/05 11:04:06;;;;;;;;;;;;;;;;;;5071270;28;1206;-62
2023/12/05 11:06:31;;;;;;;;;;;;;;;;;;5066516;28;1210;-60
2023/12/05 11:08:56;;;;;;;;;;;;;;;;;;5061221;28;1285;-61
2023/12/05 11:11:21;;;;;;;;;;;;;;;;;;5061204;28;1273;-61
2023/12/05 11:13:46;;;;;;;;;;;;;;;;;;5061113;28;1172;-62
2023/12/05 11:16:12;;;;;;;;;;;;;;;;;;5061034;28;1890;-61
2023/12/05 11:18:39;;;;;;;;;;;;;;;;;;5061424;28;1285;-61
2023/12/05 11:21:04;;;;;;;;;;;;;;;;;;5060845;28;1187;-61
2023/12/05 11:23:30;;;;;;;;;;;;;;;;;;5060924;28;1072;-62
2023/12/05 11:25:55;;;;;;;;;;;;;;;;;;5060936;28;1260;-62
2023/12/05 11:28:20;;;;;;;;;;;;;;;;;;5060689;28;1311;-62
2023/12/05 11:30:46;;;;;;;;;;;;;;;;;;5060766;28;1323;-60
2023/12/05 11:33:11;;;;;;;;;;;;;;;;;;5061333;28;1307;-62
2023/12/05 11:35:36;;;;;;;;;;;;;;;;;;5060749;28;1258;-61
2023/12/05 11:38:01;;;;;;;;;;;;;;;;;;5060825;28;1882;-63
2023/12/05 11:40:27;;;;;;;;;;;;;;;;;;5060727;28;1299;-61
2023/12/05 11:42:52;;;;;;;;;;;;;;;;;;5060731;28;1273;-61
2023/12/05 11:45:17;;;;;;;;;;;;;;;;;;5060998;28;1332;-61
2023/12/05 11:47:42;;;;;;;;;;;;;;;;;;5060981;28;1329;-62
2023/12/05 11:50:07;;;;;;;;;;;;;;;;;;5061124;28;1323;-61
2023/12/05 11:52:39;;;;;;;;;;;;;;;;;;5061163;28;1220;-61
2023/12/05 11:55:04;;;;;;;;;;;;;;;;;;5060373;28;1120;-62
2023/12/05 11:57:29;;;;;;;;;;;;;;;;;;5060108;28;1878;-63
2023/12/05 11:59:54;;;;;;;;;;;;;;;;;;5060749;28;1187;-61
2023/12/05 12:02:20;;;;;;;;;;;;;;;;;;5060751;28;1123;-62
2023/12/05 12:04:45;;;;;;;;;;;;;;;;;;5060660;28;1088;-62
2023/12/05 12:07:10;;;;;;;;;;;;;;;;;;5060866;28;1246;-62
2023/12/05 12:09:35;;;;;;;;;;;;;;;;;;5060379;28;1448;-61
2023/12/05 12:12:01;;;;;;;;;;;;;;;;;;5060421;28;1285;-62
2023/12/05 12:14:26;;;;;;;;;;;;;;;;;;5060271;28;1073;-60
2023/12/05 12:16:51;;;;;;;;;;;;;;;;;;5060478;28;1898;-61
2023/12/05 12:19:16;;;;;;;;;;;;;;;;;;5059729;28;1280;-61
2023/12/05 12:21:41;;;;;;;;;;;;;;;;;;5060143;28;1048;-60
2023/12/05 12:24:07;;;;;;;;;;;;;;;;;;5059673;28;1327;-62
2023/12/05 12:26:32;;;;;;;;;;;;;;;;;;5060268;28;1205;-61
2023/12/05 12:28:57;;;;;;;;;;;;;;;;;;5060380;28;1277;-61
2023/12/05 12:31:24;;;;;;;;;;;;;;;;;;5059817;28;1249;-62
2023/12/05 12:33:49;;;;;;;;;;;;;;;;;;5060355;28;1072;-62
2023/12/05 12:36:14;;;;;;;;;;;;;;;;;;5060029;28;1878;-62
2023/12/05 12:38:39;;;;;;;;;;;;;;;;;;5060643;28;1076;-61
2023/12/05 12:41:05;;;;;;;;;;;;;;;;;;5063539;28;1256;-62
2023/12/05 12:43:30;;;;;;;;;;;;;;;;;;5063258;28;1395;-62
2023/12/05 12:45:55;;;;;;;;;;;;;;;;;;5063427;28;1116;-62
2023/12/05 12:48:20;;;;;;;;;;;;;;;;;;5063625;28;1300;-62
2023/12/05 12:50:45;;;;;;;;;;;;;;;;;;5063845;28;1317;-61
2023/12/05 12:53:10;;;;;;;;;;;;;;;;;;5063194;28;1306;-60
2023/12/05 12:55:35;;;;;;;;;;;;;;;;;;5063487;28;1195;-61
2023/12/05 12:58:01;;;;;;;;;;;;;;;;;;5063340;28;1891;-61
2023/12/05 13:00:26;;;;;;;;;;;;;;;;;;5063201;28;1354;-60
2023/12/05 13:02:53;;;;;;;;;;;;;;;;;;5063537;28;1221;-61
2023/12/05 13:05:18;;;;;;;;;;;;;;;;;;5063051;28;1082;-61
2023/12/05 13:07:44;;;;;;;;;;;;;;;;;;5063192;28;1232;-61
2023/12/05 13:10:09;;;;;;;;;;;;;;;;;;5062997;28;1040;-63
2023/12/05 13:12:34;;;;;;;;;;;;;;;;;;5063497;28;1414;-62
2023/12/05 13:15:00;;;;;;;;;;;;;;;;;;5063417;28;1241;-62
2023/12/05 13:17:25;;;;;;;;;;;;;;;;;;5063415;28;1877;-61
2023/12/05 13:19:51;;;;;;;;;;;;;;;;;;5062890;28;1233;-61
2023/12/05 13:22:16;;;;;;;;;;;;;;;;;;5063154;28;1246;-59
2023/12/05 13:24:42;;;;;;;;;;;;;;;;;;5062894;28;1199;-60
2023/12/05 13:27:08;;;;;;;;;;;;;;;;;;5062684;28;1394;-61
2023/12/05 13:29:33;;;;;;;;;;;;;;;;;;5063102;28;1183;-61
2023/12/05 13:31:58;;;;;;;;;;;;;;;;;;5062816;28;1314;-61
2023/12/05 13:34:23;;;;;;;;;;;;;;;;;;5062916;28;1097;-61
2023/12/05 13:36:49;;;;;;;;;;;;;;;;;;5062863;28;1948;-62
2023/12/05 13:39:15;;;;;;;;;;;;;;;;;;5062742;28;1136;-61
2023/12/05 13:41:41;;;;;;;;;;;;;;;;;;5062739;28;1084;-62
2023/12/05 13:44:06;;;;;;;;;;;;;;;;;;5063016;28;1243;-61
2023/12/05 13:46:31;;;;;;;;;;;;;;;;;;5062933;28;1239;-59
2023/12/05 13:49:06;;;;;;;;;;;;;;;;;;5063027;28;1183;-61
2023/12/05 13:51:31;;;;;;;;;;;;;;;;;;5062449;28;1247;-61
2023/12/05 13:53:57;;;;;;;;;;;;;;;;;;5062513;28;1282;-62
2023/12/05 13:56:22;;;;;;;;;;;;;;;;;;5065105;28;1879;-60
2023/12/05 13:58:48;;;;;;;;;;;;;;;;;;5065423;28;1293;-62
2023/12/05 14:01:13;;;;;;;;;;;;;;;;;;5064535;28;1223;-61
2023/12/05 14:03:38;;;;;;;;;;;;;;;;;;5064435;28;1267;-61
2023/12/05 14:06:04;;;;;;;;;;;;;;;;;;5064579;28;1148;-60
2023/12/05 14:08:29;;;;;;;;;;;;;;;;;;5064811;28;1337;-61
2023/12/05 14:10:54;;;;;;;;;;;;;;;;;;5065379;28;1196;-62
2023/12/05 14:13:19;;;;;;;;;;;;;;;;;;5065561;28;1267;-61
2023/12/05 14:15:44;;;;;;;;;;;;;;;;;;5065410;28;1132;-63
2023/12/05 14:18:10;;;;;;;;;;;;;;;;;;5065819;28;1882;-60
2023/12/05 14:20:35;;;;;;;;;;;;;;;;;;5065404;28;1195;-61
2023/12/05 14:23:00;;;;;;;;;;;;;;;;;;5065309;28;1297;-62
2023/12/05 14:25:25;;;;;;;;;;;;;;;;;;5065591;28;1076;-62
2023/12/05 14:27:50;;;;;;;;;;;;;;;;;;5065354;28;1179;-61
2023/12/05 14:30:16;;;;;;;;;;;;;;;;;;5065264;28;1104;-61
2023/12/05 14:32:41;;;;;;;;;;;;;;;;;;5065194;28;1341;-62
2023/12/05 14:35:06;;;;;;;;;;;;;;;;;;5065393;28;1298;-61
2023/12/05 14:37:31;;;;;;;;;;;;;;;;;;5064876;28;1934;-61
2023/12/05 14:39:57;;;;;;;;;;;;;;;;;;5065426;28;1089;-61
2023/12/05 14:42:22;;;;;;;;;;;;;;;;;;5065174;28;1080;-61
2023/12/05 14:44:47;;;;;;;;;;;;;;;;;;5064848;28;1136;-63
2023/12/05 14:47:12;;;;;;;;;;;;;;;;;;5065173;28;1167;-61
2023/12/05 14:49:38;;;;;;;;;;;;;;;;;;5065086;28;1097;-60
2023/12/05 14:52:04;;;;;;;;;;;;;;;;;;5065059;28;1356;-60
2023/12/05 14:54:29;;;;;;;;;;;;;;;;;;5064568;28;1285;-61
2023/12/05 14:56:54;;;;;;;;;;;;;;;;;;5061002;28;1963;-60
2023/12/05 14:59:19;;;;;;;;;;;;;;;;;;5061387;28;1179;-62
2023/12/05 15:01:44;;;;;;;;;;;;;;;;;;5060834;28;1327;-62
2023/12/05 15:04:09;;;;;;;;;;;;;;;;;;5061359;28;1143;-60
2023/12/05 15:06:34;;;;;;;;;;;;;;;;;;5061581;28;1270;-61
2023/12/05 15:09:00;;;;;;;;;;;;;;;;;;5059964;28;1299;-61
2023/12/05 15:11:25;;;;;;;;;;;;;;;;;;5061071;28;1628;-61
2023/12/05 15:13:51;;;;;;;;;;;;;;;;;;5060782;28;1390;-63
2023/12/05 15:16:16;;;;;;;;;;;;;;;;;;5060863;28;1877;-61
2023/12/05 15:18:42;;;;;;;;;;;;;;;;;;5061415;28;1097;-61
2023/12/05 15:21:08;;;;;;;;;;;;;;;;;;5061466;28;1073;-59
2023/12/05 15:23:33;;;;;;;;;;;;;;;;;;5061164;28;1310;-61
2023/12/05 15:25:59;;;;;;;;;;;;;;;;;;5060924;28;1339;-61
2023/12/05 15:28:27;;;;;;;;;;;;;;;;;;5060812;28;1237;-61
2023/12/05 15:30:52;;;;;;;;;;;;;;;;;;5061159;28;1351;-60
2023/12/05 15:33:17;;;;;;;;;;;;;;;;;;5080394;28;1280;-61
2023/12/05 15:35:43;;;;;;;;;;;;;;;;;;5077507;28;1228;-61
2023/12/05 15:38:08;;;;;;;;;;;;;;;;;;5062179;28;1943;-61
2023/12/05 15:40:33;;;;;;;;;;;;;;;;;;5062385;28;1744;-61
2023/12/05 15:42:58;;;;;;;;;;;;;;;;;;5061618;28;1253;-62
2023/12/05 15:45:24;;;;;;;;;;;;;;;;;;5061939;28;1187;-63
2023/12/05 15:47:49;;;;;;;;;;;;;;;;;;5061599;28;1377;-60
2023/12/05 15:50:16;;;;;;;;;;;;;;;;;;5062054;28;1301;-61
2023/12/05 15:52:41;;;;;;;;;;;;;;;;;;5062259;28;1153;-62
2023/12/05 15:55:07;;;;;;;;;;;;;;;;;;5062204;28;1314;-61
2023/12/05 15:57:32;;;;;;;;;;;;;;;;;;5061398;28;1894;-60
2023/12/05 15:59:57;;;;;;;;;;;;;;;;;;5061292;28;1419;-63
2023/12/05 16:02:25;;;;;;;;;;;;;;;;;;5061195;28;1258;-62
2023/12/05 16:04:50;;;;;;;;;;;;;;;;;;5068087;28;1440;-62
2023/12/05 16:07:15;;;;;;;;;;;;;;;;;;5061112;28;1195;-62
2023/12/05 16:09:40;;;;;;;;;;;;;;;;;;5065483;28;1315;-62
2023/12/05 16:12:06;;;;;;;;;;;;;;;;;;5071053;28;1191;-62
2023/12/05 16:14:31;;;;;;;;;;;;;;;;;;5074917;28;1235;-61
2023/12/05 16:16:56;;;;;;;;;;;;;;;;;;5074614;28;1953;-62
2023/12/05 16:19:21;;;;;;;;;;;;;;;;;;5076140;28;2551;-61
2023/12/05 16:21:47;;;;;;;;;;;;;;;;;;5071210;28;1301;-59
2023/12/05 16:24:12;;;;;;;;;;;;;;;;;;5062459;28;1089;-59
2023/12/05 16:26:38;;;;;;;;;;;;;;;;;;5042367;28;1303;-59
2023/12/05 16:29:03;;;;;;;;;;;;;;;;;;5064618;28;1200;-58
2023/12/05 16:31:28;;;;;;;;;;;;;;;;;;5063697;28;1093;-58
2023/12/05 16:33:53;;;;;;;;;;;;;;;;;;5077933;28;2683;-62
2023/12/05 16:36:18;;;;;;;;;;;;;;;;;;5066495;28;2639;-60
2023/12/05 16:38:44;;;;;;;;;;;;;;;;;;5080237;28;2655;-60
2023/12/05 16:41:09;;;;;;;;;;;;;;;;;;5068707;28;1353;-61
2023/12/05 16:43:35;;;;;;;;;;;;;;;;;;5068813;28;1199;-61
2023/12/05 16:46:00;;;;;;;;;;;;;;;;;;5057271;28;1205;-61
2023/12/05 16:48:25;;;;;;;;;;;;;;;;;;5064647;28;1369;-59